createdAt,value
2018-06-02T00:01:02.506Z,15.00
2018-06-02T00:05:35.724Z,15.00
2018-06-02T00:10:08.905Z,15.00
2018-06-02T00:14:42.097Z,14.90
2018-06-02T00:19:15.278Z,14.90
2018-06-02T00:23:49.433Z,14.70
2018-06-02T00:28:22.610Z,14.70
2018-06-02T00:32:55.827Z,14.70
2018-06-02T00:37:29.674Z,14.60
2018-06-02T00:42:02.910Z,14.60
2018-06-02T00:46:36.065Z,14.60
2018-06-02T00:51:09.299Z,14.60
2018-06-02T00:55:42.595Z,14.60
2018-06-02T01:00:15.809Z,14.50
2018-06-02T01:04:48.990Z,14.40
2018-06-02T01:09:22.206Z,14.40
2018-06-02T01:13:55.398Z,14.40
2018-06-02T01:18:28.688Z,14.50
2018-06-02T01:23:02.671Z,14.30
2018-06-02T01:27:35.833Z,14.30
2018-06-02T01:32:09.018Z,14.30
2018-06-02T01:36:42.995Z,14.20
2018-06-02T01:41:16.215Z,14.10
2018-06-02T01:45:49.374Z,14.20
2018-06-02T01:50:23.318Z,14.00
2018-06-02T01:54:56.497Z,14.00
2018-06-02T01:59:30.445Z,14.00
2018-06-02T02:04:03.670Z,14.00
2018-06-02T02:08:36.891Z,14.00
2018-06-02T02:13:10.419Z,13.90
2018-06-02T02:17:43.643Z,13.80
2018-06-02T02:22:16.827Z,13.70
2018-06-02T02:26:50.039Z,13.70
2018-06-02T02:31:23.223Z,13.70
2018-06-02T02:35:56.408Z,13.70
2018-06-02T02:40:29.630Z,13.70
2018-06-02T02:45:02.859Z,13.70
2018-06-02T02:49:36.046Z,13.60
2018-06-02T02:54:09.240Z,13.60
2018-06-02T02:58:42.435Z,13.60
2018-06-02T03:03:15.622Z,13.60
2018-06-02T03:07:49.603Z,13.50
2018-06-02T03:12:22.787Z,13.40
2018-06-02T03:16:55.975Z,13.40
2018-06-02T03:21:29.157Z,13.40
2018-06-02T03:26:03.101Z,13.50
2018-06-02T03:30:36.294Z,13.50
2018-06-02T03:35:10.303Z,13.60
2018-06-02T03:39:43.498Z,13.60
2018-06-02T03:44:17.450Z,13.80
2018-06-02T03:48:51.686Z,14.00
2018-06-02T03:53:24.867Z,13.90
2018-06-02T03:57:58.080Z,14.00
2018-06-02T04:02:32.034Z,14.20
2018-06-02T04:07:05.224Z,14.20
2018-06-02T04:11:39.222Z,14.40
2018-06-02T04:16:13.946Z,14.40
2018-06-02T04:20:47.131Z,14.40
2018-06-02T04:25:20.327Z,14.50
2018-06-02T04:29:53.546Z,14.60
2018-06-02T04:34:26.739Z,14.70
2018-06-02T04:39:00.002Z,14.80
2018-06-02T04:43:33.986Z,15.00
2018-06-02T04:48:07.203Z,15.00
2018-06-02T04:52:40.394Z,15.10
2018-06-02T04:57:13.591Z,15.20
2018-06-02T05:01:46.803Z,15.30
2018-06-02T05:06:19.997Z,15.40
2018-06-02T05:10:53.370Z,15.60
2018-06-02T05:15:26.593Z,15.60
2018-06-02T05:20:00.000Z,15.80
2018-06-02T05:24:33.986Z,16.00
2018-06-02T05:29:08.464Z,15.90
2018-06-02T05:33:41.871Z,16.00
2018-06-02T05:38:15.838Z,16.10
2018-06-02T05:42:49.030Z,16.00
2018-06-02T05:47:22.249Z,16.20
2018-06-02T05:51:55.419Z,16.40
2018-06-02T05:56:29.369Z,16.80
2018-06-02T06:01:02.570Z,16.70
2018-06-02T06:05:35.936Z,16.90
2018-06-02T06:10:09.160Z,17.00
2018-06-02T06:14:43.090Z,17.20
2018-06-02T06:19:17.078Z,17.30
2018-06-02T06:23:50.273Z,17.20
2018-06-02T06:28:23.489Z,17.50
2018-06-02T06:32:57.026Z,17.60
2018-06-02T06:37:30.246Z,17.80
2018-06-02T06:42:04.233Z,18.20
2018-06-02T06:46:37.808Z,18.20
2018-06-02T06:51:11.807Z,18.70
2018-06-02T06:55:45.047Z,18.60
2018-06-02T07:00:18.270Z,19.00
2018-06-02T07:04:51.942Z,19.20
2018-06-02T07:09:25.925Z,19.20
2018-06-02T07:13:59.142Z,19.20
2018-06-02T07:18:32.374Z,19.30
2018-06-02T07:23:06.333Z,19.50
2018-06-02T07:27:39.608Z,19.40
2018-06-02T07:32:13.568Z,19.40
2018-06-02T07:36:46.785Z,19.40
2018-06-02T07:41:19.977Z,19.50
2018-06-02T07:45:53.193Z,19.70
2018-06-02T07:50:26.851Z,19.80
2018-06-02T07:55:00.878Z,19.60
2018-06-02T07:59:35.609Z,19.60
2018-06-02T08:04:08.858Z,19.60
2018-06-02T08:08:42.895Z,20.00
2018-06-02T08:13:17.039Z,20.10
2018-06-02T08:17:50.273Z,20.10
2018-06-02T08:22:23.461Z,20.50
2018-06-02T08:26:56.681Z,20.80
2018-06-02T08:31:29.902Z,21.00
2018-06-02T08:36:03.143Z,21.00
2018-06-02T08:40:36.379Z,20.80
2018-06-02T08:45:09.610Z,20.80
2018-06-02T08:49:42.890Z,20.80
2018-06-02T08:54:16.081Z,21.00
2018-06-02T08:58:49.279Z,21.50
2018-06-02T09:03:23.237Z,25.70
2018-06-02T09:07:56.400Z,25.50
2018-06-02T09:12:30.389Z,27.00
2018-06-02T09:17:03.575Z,27.00
2018-06-02T09:21:36.814Z,25.50
2018-06-02T09:26:10.030Z,24.60
2018-06-02T09:30:43.238Z,23.90
2018-06-02T09:35:17.201Z,24.20
2018-06-02T09:39:50.469Z,24.10
2018-06-02T09:44:23.690Z,25.30
2018-06-02T09:48:57.671Z,26.40
2018-06-02T09:53:30.900Z,26.30
2018-06-02T09:58:05.594Z,26.50
2018-06-02T10:02:38.873Z,26.50
2018-06-02T10:07:12.827Z,29.10
2018-06-02T10:11:46.014Z,29.00
2018-06-02T10:16:19.237Z,31.50
2018-06-02T10:20:52.420Z,31.10
2018-06-02T10:25:26.394Z,28.20
2018-06-02T10:29:59.619Z,28.10
2018-06-02T10:34:33.579Z,28.10
2018-06-02T10:39:07.581Z,28.20
2018-06-02T10:43:40.796Z,28.20
2018-06-02T10:48:15.050Z,27.80
2018-06-02T10:52:49.046Z,27.60
2018-06-02T10:57:22.331Z,27.50
2018-06-02T11:01:55.754Z,27.60
2018-06-02T11:06:28.985Z,27.60
2018-06-02T11:11:02.918Z,27.70
2018-06-02T11:15:36.863Z,28.20
2018-06-02T11:20:10.058Z,28.10
2018-06-02T11:24:43.247Z,28.80
2018-06-02T11:29:17.221Z,31.20
2018-06-02T11:33:50.434Z,31.10
2018-06-02T11:38:23.645Z,32.50
2018-06-02T11:42:56.990Z,33.30
2018-06-02T11:47:30.218Z,31.90
2018-06-02T11:52:03.402Z,30.50
2018-06-02T11:56:36.611Z,29.20
2018-06-02T12:01:10.558Z,29.90
2018-06-02T12:05:43.878Z,29.90
2018-06-02T12:10:17.547Z,30.20
2018-06-02T12:14:50.897Z,30.40
2018-06-02T12:19:24.772Z,31.50
2018-06-02T12:23:59.524Z,31.40
2018-06-02T12:28:32.710Z,31.30
2018-06-02T12:33:05.957Z,29.90
2018-06-02T12:37:39.914Z,28.80
2018-06-02T12:42:13.122Z,28.80
2018-06-02T12:46:46.325Z,28.70
2018-06-02T12:51:19.509Z,28.00
2018-06-02T12:55:53.505Z,26.20
2018-06-02T13:00:27.906Z,25.60
2018-06-02T13:05:01.172Z,25.50
2018-06-02T13:09:35.939Z,26.40
2018-06-02T13:14:09.979Z,26.40
2018-06-02T13:18:44.753Z,27.30
2018-06-02T13:23:19.100Z,28.30
2018-06-02T13:27:53.098Z,28.20
2018-06-02T13:32:26.749Z,28.10
2018-06-02T13:37:01.045Z,27.40
2018-06-02T13:41:35.947Z,27.30
2018-06-02T13:46:09.939Z,27.30
2018-06-02T13:50:43.160Z,27.20
2018-06-02T13:55:17.110Z,27.10
2018-06-02T13:59:50.365Z,27.00
2018-06-02T14:04:23.741Z,27.40
2018-06-02T14:08:56.927Z,28.20
2018-06-02T14:13:30.216Z,28.80
2018-06-02T14:18:03.642Z,29.10
2018-06-02T14:22:37.587Z,28.50
2018-06-02T14:27:10.803Z,28.40
2018-06-02T14:31:44.186Z,27.80
2018-06-02T14:36:17.363Z,27.20
2018-06-02T14:40:50.618Z,27.30
2018-06-02T14:45:23.814Z,27.20
2018-06-02T14:49:57.029Z,27.10
2018-06-02T14:54:30.243Z,27.30
2018-06-02T14:59:03.470Z,27.50
2018-06-02T15:03:36.726Z,27.20
2018-06-02T15:08:10.674Z,27.50
2018-06-02T15:12:43.954Z,27.40
2018-06-02T15:17:17.921Z,27.10
2018-06-02T15:21:51.130Z,27.10
2018-06-02T15:26:24.286Z,26.70
2018-06-02T15:30:58.329Z,26.20
2018-06-02T15:35:31.547Z,26.10
2018-06-02T15:40:04.762Z,26.00
2018-06-02T15:44:37.980Z,26.00
2018-06-02T15:49:11.166Z,25.80
2018-06-02T15:54:23.406Z,25.60
2018-06-02T15:58:57.882Z,25.50
2018-06-02T16:03:32.543Z,25.40
2018-06-02T16:08:06.986Z,25.30
2018-06-02T16:12:41.466Z,25.40
2018-06-02T16:17:16.010Z,25.40
2018-06-02T16:21:50.504Z,25.40
2018-06-02T16:30:59.949Z,25.30
2018-06-02T16:35:34.350Z,25.20
2018-06-02T16:40:08.594Z,25.20
2018-06-02T16:44:43.174Z,25.00
2018-06-02T16:49:17.754Z,24.90
2018-06-02T16:53:52.292Z,25.00
2018-06-02T16:58:27.031Z,25.00
2018-06-02T17:03:01.662Z,25.10
2018-06-02T17:07:36.742Z,25.00
2018-06-02T17:12:11.318Z,25.00
2018-06-02T17:16:45.678Z,24.90
2018-06-02T17:21:20.055Z,24.80
2018-06-02T17:25:55.730Z,24.60
2018-06-02T17:30:30.267Z,24.50
2018-06-02T17:35:04.746Z,24.30
2018-06-02T17:39:38.987Z,24.20
2018-06-02T17:44:14.113Z,24.20
2018-06-02T17:48:48.516Z,24.00
2018-06-02T17:53:23.031Z,23.80
2018-06-02T17:57:57.465Z,23.70
2018-06-02T18:02:31.713Z,23.50
2018-06-02T18:07:06.122Z,23.50
2018-06-02T18:11:40.398Z,23.40
2018-06-02T18:16:14.777Z,23.30
2018-06-02T18:20:49.379Z,23.30
2018-06-02T18:25:23.626Z,23.30
2018-06-02T18:39:07.258Z,23.10
2018-06-02T18:43:41.778Z,22.90
2018-06-02T18:48:16.153Z,22.70
2018-06-02T18:52:50.328Z,22.50
2018-06-02T18:57:25.527Z,22.10
2018-06-02T19:01:59.985Z,21.80
2018-06-02T19:06:34.533Z,21.60
2018-06-02T19:11:09.294Z,21.50
2018-06-02T19:15:43.870Z,21.20
2018-06-02T19:20:19.106Z,21.00
2018-06-02T19:24:54.693Z,20.90
2018-06-02T19:29:29.245Z,20.70
2018-06-02T19:34:03.835Z,20.50
2018-06-02T19:38:38.179Z,20.20
2018-06-02T19:47:47.794Z,19.90
2018-06-02T19:52:22.472Z,19.70
2018-06-02T19:56:57.255Z,19.50
2018-06-02T20:01:32.683Z,19.30
2018-06-02T20:10:41.173Z,19.10
2018-06-02T20:15:15.818Z,18.90
2018-06-02T20:19:50.194Z,18.60
2018-06-02T20:24:24.572Z,18.40
2018-06-02T20:28:59.306Z,18.20
2018-06-02T20:33:33.759Z,18.10
2018-06-02T20:38:09.434Z,18.00
2018-06-02T20:42:43.896Z,18.00
2018-06-02T20:47:19.324Z,18.00
2018-06-02T20:51:53.843Z,17.80
2018-06-02T20:56:28.967Z,17.80
2018-06-02T21:01:03.574Z,17.70
2018-06-02T21:05:38.006Z,17.50
2018-06-02T21:10:12.403Z,17.30
2018-06-02T21:14:47.034Z,17.20
2018-06-02T21:19:21.534Z,17.10
2018-06-02T21:23:55.918Z,17.10
2018-06-02T21:28:30.376Z,17.00
2018-06-02T21:33:04.918Z,17.00
2018-06-02T21:37:39.333Z,16.90
2018-06-02T21:42:13.796Z,16.80
2018-06-02T21:46:48.206Z,16.70
2018-06-02T21:51:22.668Z,16.70
2018-06-02T21:55:57.010Z,16.60
2018-06-02T22:00:31.314Z,16.50
2018-06-02T22:05:06.224Z,16.40
2018-06-02T22:09:40.698Z,16.30
2018-06-02T22:14:15.322Z,16.20
2018-06-02T22:18:49.797Z,16.10
2018-06-02T22:23:24.675Z,16.00
2018-06-02T22:27:59.171Z,16.00
2018-06-02T22:32:33.560Z,15.90
2018-06-02T22:41:44.178Z,15.80
2018-06-02T22:46:21.210Z,15.70
2018-06-02T22:50:55.530Z,15.70
2018-06-02T22:55:30.226Z,15.60
2018-06-02T23:00:05.327Z,15.50
2018-06-02T23:04:43.533Z,15.40
2018-06-02T23:09:17.979Z,15.30
2018-06-02T23:13:52.316Z,15.20
2018-06-02T23:18:26.753Z,15.10
2018-06-02T23:23:01.302Z,15.00
2018-06-02T23:27:35.922Z,15.00
2018-06-02T23:32:10.142Z,15.00
2018-06-02T23:36:45.355Z,15.00
2018-06-02T23:41:19.978Z,14.90
2018-06-02T23:45:54.507Z,14.90
2018-06-02T23:50:29.438Z,14.90
2018-06-02T23:55:03.887Z,14.70
2018-06-02T23:59:38.526Z,14.60
